Time;durP1;ratioP1;P1;durP2;ratioP2;P2;SDS_P1;SDS_P2;PMS_P1;PMS_P2;Temp;Humidity;BMP_temperature;BMP_pressure;BME280_temperature;BME280_humidity;BME280_pressure;Samples;Min_cycle;Max_cycle;Signal;HPM_P1;HPM_P2
2023/04/03 00:01:58;;;;;;;5.53;1.73;;;;;;;-0.28;92.53;102540.91;6075374;28;20064;-70
2023/04/03 00:04:54;;;;;;;3.70;1.07;;;;;;;-0.32;92.56;102533.19;6074729;28;20047;-70
2023/04/03 00:07:49;;;;;;;6.55;1.30;;;;;;;-0.23;92.68;102551.25;6075415;28;20036;-70
2023/04/03 00:10:45;;;;;;;5.15;0.98;;;;;;;-0.39;93.05;102532.47;6075235;28;20041;-70
2023/04/03 00:13:40;;;;;;;4.13;0.97;;;;;;;-0.29;94.08;102541.81;6074510;28;20127;-71
2023/04/03 00:16:35;;;;;;;11.35;1.20;;;;;;;-0.25;94.81;102535.66;6075024;28;20038;-71
2023/04/03 00:19:31;;;;;;;6.27;1.10;;;;;;;-0.31;93.47;102556.63;6075524;28;20026;-70
2023/04/03 00:22:28;;;;;;;4.43;1.10;;;;;;;-0.49;93.66;102549.16;6074350;28;20176;-71
2023/04/03 00:25:23;;;;;;;5.55;1.38;;;;;;;-0.56;94.15;102554.53;6074621;28;20304;-71
2023/04/03 00:28:19;;;;;;;5.20;1.40;;;;;;;-0.64;94.37;102549.47;6075126;28;20033;-71
2023/04/03 00:31:16;;;;;;;4.35;1.10;;;;;;;-0.77;94.04;102543.66;6075013;28;20017;-70
2023/04/03 00:34:11;;;;;;;3.85;1.25;;;;;;;-0.77;94.46;102548.00;6073699;28;20482;-70
2023/04/03 00:37:06;;;;;;;4.23;0.70;;;;;;;-0.72;94.95;102548.75;6074815;28;20190;-71
2023/04/03 00:40:02;;;;;;;3.93;1.23;;;;;;;-0.92;94.76;102550.88;6075104;28;20033;-71
2023/04/03 00:42:59;;;;;;;3.33;1.08;;;;;;;-0.71;95.34;102566.13;6074617;28;20032;-70
2023/04/03 00:45:56;;;;;;;7.53;1.10;;;;;;;-0.75;96.56;102565.31;6073790;28;20478;-71
2023/04/03 00:48:51;;;;;;;3.28;1.25;;;;;;;-0.88;95.77;102563.81;6075312;28;20044;-71
2023/04/03 00:51:46;;;;;;;4.10;1.00;;;;;;;-0.75;96.86;102562.69;6074033;28;20033;-72
2023/04/03 00:54:42;;;;;;;2.87;0.83;;;;;;;-0.74;97.44;102564.44;6073294;28;20033;-70
2023/04/03 00:57:38;;;;;;;2.15;0.85;;;;;;;-0.73;96.76;102573.06;6074510;28;20264;-72
2023/04/03 01:00:34;;;;;;;7.40;1.13;;;;;;;-0.67;97.24;102566.00;6089461;28;20117;-71
2023/04/03 01:03:31;;;;;;;2.97;1.40;;;;;;;-0.74;97.44;102576.59;6088708;28;20037;-71
2023/04/03 01:06:31;;;;;;;2.40;1.15;;;;;;;-0.82;97.31;102581.06;6073852;28;20029;-71
2023/04/03 01:09:26;;;;;;;1.63;0.60;;;;;;;-0.84;97.57;102585.44;6089639;28;20025;-71
2023/04/03 01:12:26;;;;;;;7.60;1.20;;;;;;;-0.88;97.40;102600.28;6076785;28;20026;-71
2023/04/03 01:15:26;;;;;;;4.60;1.15;;;;;;;-0.81;97.77;102581.03;6073739;28;20033;-71
2023/04/03 01:18:23;;;;;;;2.90;0.70;;;;;;;-0.86;97.85;102592.41;6074060;28;20033;-71
2023/04/03 01:21:46;;;;;;;2.58;0.82;;;;;;;-0.68;97.92;102592.09;6074178;28;20029;-71
2023/04/03 01:24:41;;;;;;;4.38;1.50;;;;;;;-0.94;97.67;102584.75;6088406;28;20120;-71
2023/04/03 01:27:37;;;;;;;5.00;1.10;;;;;;;-1.13;97.87;102582.47;6074014;28;20486;-70
2023/04/03 01:30:41;;;;;;;1.87;0.90;;;;;;;-1.06;97.92;102591.91;6074215;28;20022;-71
2023/04/03 01:33:37;;;;;;;3.30;0.90;;;;;;;-1.08;98.01;102597.13;6088317;28;20037;-71
2023/04/03 01:36:32;;;;;;;2.20;0.73;;;;;;;-1.02;98.70;102590.97;6073856;28;20034;-70
2023/04/03 01:39:28;;;;;;;4.03;0.83;;;;;;;-1.10;98.17;102604.13;6073845;28;20032;-70
2023/04/03 01:42:23;;;;;;;3.33;0.87;;;;;;;-1.26;97.89;102587.91;6073372;28;20034;-70
2023/04/03 01:45:18;;;;;;;4.33;1.23;;;;;;;-1.16;98.04;102598.16;6072036;28;20040;-70
2023/04/03 01:48:13;;;;;;;5.23;1.30;;;;;;;-1.41;98.72;102585.53;6073251;28;20120;-70
2023/04/03 01:51:09;;;;;;;3.10;1.07;;;;;;;-1.25;99.31;102584.41;6055821;28;20095;-71
2023/04/03 01:54:04;;;;;;;4.20;1.08;;;;;;;-1.39;99.15;102596.78;6071984;28;20471;-70
2023/04/03 01:56:59;;;;;;;3.73;1.20;;;;;;;-1.33;99.66;102601.88;6073533;28;20059;-70
2023/04/03 01:59:55;;;;;;;4.27;0.97;;;;;;;-1.47;99.59;102580.41;6073594;28;20033;-71
2023/04/03 02:02:50;;;;;;;3.97;0.80;;;;;;;-1.36;100.00;102591.50;6077804;28;20021;-70
2023/04/03 02:05:45;;;;;;;3.27;1.40;;;;;;;-1.13;99.90;102605.91;6084864;28;20087;-70
2023/04/03 02:08:41;;;;;;;7.10;1.20;;;;;;;-1.26;100.00;102611.31;6072388;28;20037;-70
2023/04/03 02:11:36;;;;;;;6.47;0.95;;;;;;;-1.28;100.00;102605.25;6074981;28;20083;-70
2023/04/03 02:14:32;;;;;;;2.23;0.80;;;;;;;-1.37;100.00;102609.75;6072410;28;20037;-71
2023/04/03 02:17:27;;;;;;;2.25;1.00;;;;;;;-1.45;100.00;102601.22;6072689;28;20041;-71
2023/04/03 02:20:23;;;;;;;6.10;0.93;;;;;;;-1.52;100.00;102594.41;6073067;28;20367;-70
2023/04/03 02:23:18;;;;;;;2.57;0.93;;;;;;;-1.45;100.00;102604.69;6072003;28;20075;-71
2023/04/03 02:26:15;;;;;;;8.93;1.07;;;;;;;-1.54;100.00;102604.81;6072850;28;20536;-71
2023/04/03 02:29:10;;;;;;;4.53;0.95;;;;;;;-1.58;100.00;102618.75;6073310;28;20030;-71
2023/04/03 02:32:05;;;;;;;20.10;6.30;;;;;;;-1.49;100.00;102626.41;6072784;28;20041;-71
2023/04/03 02:35:01;;;;;;;22.70;6.33;;;;;;;-1.68;100.00;102609.34;6072665;28;20048;-72
2023/04/03 02:37:56;;;;;;;8.67;2.30;;;;;;;-1.67;100.00;102616.28;6073063;28;20278;-71
2023/04/03 02:40:51;;;;;;;4.20;1.00;;;;;;;-1.61;100.00;102621.41;6072925;28;20026;-71
2023/04/03 02:43:47;;;;;;;7.35;1.58;;;;;;;-1.50;100.00;102624.72;6072131;28;20052;-71
2023/04/03 02:46:42;;;;;;;6.10;0.93;;;;;;;-1.60;100.00;102615.31;6071471;28;20037;-72
2023/04/03 02:49:37;;;;;;;6.17;1.60;;;;;;;-1.66;100.00;102625.81;6072415;28;20492;-72
2023/04/03 02:52:33;;;;;;;4.70;1.10;;;;;;;-1.66;100.00;102623.22;6071973;28;20030;-72
2023/04/03 02:55:28;;;;;;;10.13;2.50;;;;;;;-1.67;100.00;102615.41;6072932;28;20044;-71
2023/04/03 02:58:23;;;;;;;3.20;1.03;;;;;;;-1.60;100.00;102623.09;6077329;28;20764;-72
2023/04/03 03:01:19;;;;;;;4.23;1.00;;;;;;;-1.57;100.00;102632.59;6076947;28;20040;-71
2023/04/03 03:04:14;;;;;;;3.78;1.02;;;;;;;-1.57;100.00;102615.25;6075813;28;20025;-71
2023/04/03 03:07:10;;;;;;;2.87;1.13;;;;;;;-1.50;100.00;102629.91;6076750;28;20486;-72
2023/04/03 03:10:06;;;;;;;4.85;1.30;;;;;;;-1.65;100.00;102630.13;6077074;28;20080;-72
2023/04/03 03:13:01;;;;;;;4.40;0.95;;;;;;;-1.77;100.00;102606.03;6076292;28;20478;-72
2023/04/03 03:15:56;;;;;;;5.27;1.27;;;;;;;-1.82;100.00;102632.06;6076121;28;20037;-72
2023/04/03 03:18:52;;;;;;;3.08;0.82;;;;;;;-1.83;100.00;102606.97;6076976;28;20504;-72
2023/04/03 03:21:47;;;;;;;1.23;0.83;;;;;;;-1.75;100.00;102617.28;6076223;28;20048;-71
2023/04/03 03:24:42;;;;;;;2.77;1.43;;;;;;;-1.84;100.00;102616.50;6075645;28;20033;-72
2023/04/03 03:27:38;;;;;;;2.63;1.23;;;;;;;-1.84;100.00;102623.44;6076344;28;20041;-72
2023/04/03 03:30:34;;;;;;;2.78;1.30;;;;;;;-1.69;100.00;102633.66;6076403;28;20481;-72
2023/04/03 03:33:29;;;;;;;7.10;1.85;;;;;;;-1.86;100.00;102627.81;6075207;28;20478;-72
2023/04/03 03:36:25;;;;;;;7.20;2.03;;;;;;;-1.80;100.00;102643.34;6076315;28;20034;-72
2023/04/03 03:39:20;;;;;;;6.15;2.10;;;;;;;-1.81;100.00;102641.59;6076371;28;20041;-72
2023/04/03 03:42:16;;;;;;;4.05;1.48;;;;;;;-1.96;100.00;102626.22;6075807;28;20029;-72
2023/04/03 03:45:11;;;;;;;2.78;1.45;;;;;;;-1.90;100.00;102649.50;6075740;28;20029;-71
2023/04/03 03:48:06;;;;;;;5.47;1.53;;;;;;;-1.79;100.00;102646.81;6076050;28;20033;-71
2023/04/03 03:51:02;;;;;;;7.37;1.87;;;;;;;-1.97;100.00;102627.09;6075314;28;20465;-71
2023/04/03 03:53:57;;;;;;;4.80;1.25;;;;;;;-1.92;100.00;102646.94;6074463;28;20044;-71
2023/04/03 03:56:52;;;;;;;3.83;1.03;;;;;;;-1.93;100.00;102634.00;6075923;28;20037;-71
2023/04/03 03:59:48;;;;;;;22.13;5.33;;;;;;;-2.02;100.00;102650.53;6076303;28;20382;-71
2023/04/03 04:02:44;;;;;;;63.60;17.60;;;;;;;-2.02;100.00;102645.34;6075685;28;20034;-71
2023/04/03 04:05:39;;;;;;;29.42;8.25;;;;;;;-2.00;100.00;102638.38;6074417;28;20029;-71
2023/04/03 04:08:34;;;;;;;17.03;3.23;;;;;;;-1.93;100.00;102636.59;6074857;28;20094;-71
2023/04/03 04:11:30;;;;;;;7.63;2.60;;;;;;;-1.93;100.00;102654.78;6075835;28;20033;-71
2023/04/03 04:14:26;;;;;;;9.00;2.60;;;;;;;-1.93;100.00;102637.41;6075466;28;20034;-71
2023/04/03 04:17:21;;;;;;;4.45;1.95;;;;;;;-1.80;100.00;102643.34;6075497;28;20041;-72
2023/04/03 04:20:17;;;;;;;3.10;1.55;;;;;;;-1.93;100.00;102645.22;6075650;28;20040;-71
2023/04/03 04:23:12;;;;;;;4.93;1.77;;;;;;;-2.00;100.00;102645.31;6080798;28;20085;-71
2023/04/03 04:26:07;;;;;;;4.30;1.73;;;;;;;-1.79;100.00;102654.59;6092393;28;20486;-71
2023/04/03 04:29:02;;;;;;;9.13;1.33;;;;;;;-1.98;100.00;102652.22;6075475;28;20437;-71
2023/04/03 04:31:58;;;;;;;6.10;1.80;;;;;;;-1.93;100.00;102657.38;6075055;28;20045;-71
2023/04/03 04:34:53;;;;;;;1.77;1.00;;;;;;;-2.21;100.00;102643.84;6075345;28;20071;-70
2023/04/03 04:37:48;;;;;;;4.47;1.60;;;;;;;-2.07;100.00;102652.34;6075305;28;20389;-71
2023/04/03 04:40:44;;;;;;;6.57;1.93;;;;;;;-1.90;100.00;102634.78;6075152;28;20103;-71
2023/04/03 04:43:39;;;;;;;8.40;2.60;;;;;;;-1.95;100.00;102640.91;6074820;28;20030;-71
2023/04/03 04:46:34;;;;;;;4.43;1.57;;;;;;;-1.94;100.00;102647.84;6074901;28;20037;-73
2023/04/03 04:49:29;;;;;;;6.07;1.50;;;;;;;-1.74;100.00;102664.06;6074385;28;20052;-71
2023/04/03 04:52:25;;;;;;;4.20;1.70;;;;;;;-2.09;100.00;102658.44;6074034;28;20044;-72
2023/04/03 04:55:20;;;;;;;5.07;2.07;;;;;;;-2.04;100.00;102672.25;6072739;28;20044;-71
2023/04/03 04:58:15;;;;;;;10.20;2.67;;;;;;;-2.15;100.00;102655.91;6073799;28;20037;-72
2023/04/03 05:01:11;;;;;;;48.20;14.20;;;;;;;-2.09;100.00;102664.47;6074286;28;20367;-71
2023/04/03 05:04:06;;;;;;;101.87;26.33;;;;;;;-2.08;100.00;102678.34;6079909;28;20083;-72
2023/04/03 05:07:01;;;;;;;44.33;13.83;;;;;;;-2.07;100.00;102673.13;6077088;28;20040;-71
2023/04/03 05:09:56;;;;;;;16.20;3.77;;;;;;;-2.09;100.00;102682.66;6074312;28;20268;-71
2023/04/03 05:12:52;;;;;;;7.13;2.30;;;;;;;-2.15;100.00;102685.34;6078411;28;20034;-71
2023/04/03 05:15:47;;;;;;;6.27;1.50;;;;;;;-2.17;100.00;102665.44;6073690;28;20409;-71
2023/04/03 05:18:42;;;;;;;7.93;1.90;;;;;;;-2.04;100.00;102686.06;6074002;28;20030;-71
2023/04/03 05:21:38;;;;;;;7.27;1.80;;;;;;;-1.77;100.00;102692.69;6073636;28;20034;-72
2023/04/03 05:24:33;;;;;;;40.37;10.17;;;;;;;-1.90;100.00;102685.91;6072574;28;20076;-71
2023/04/03 05:27:28;;;;;;;17.07;6.33;;;;;;;-1.97;100.00;102690.34;6074016;28;20037;-71
2023/04/03 05:30:24;;;;;;;17.43;4.00;;;;;;;-1.90;100.00;102681.56;6074055;28;20036;-73
2023/04/03 05:33:19;;;;;;;7.10;2.00;;;;;;;-1.71;100.00;102692.59;6073288;28;20319;-72
2023/04/03 05:36:15;;;;;;;6.13;1.43;;;;;;;-1.41;100.00;102692.19;6073898;28;20055;-72
2023/04/03 05:39:10;;;;;;;3.25;1.13;;;;;;;-1.05;100.00;102708.16;6072482;28;20363;-73
2023/04/03 05:42:05;;;;;;;7.90;2.00;;;;;;;-0.55;100.00;102692.56;6072637;28;20072;-71
2023/04/03 05:45:01;;;;;;;6.07;1.80;;;;;;;-0.63;100.00;102710.94;6076943;28;20041;-72
2023/04/03 05:47:56;;;;;;;8.57;1.73;;;;;;;-0.45;99.51;102721.91;6072371;28;20045;-72
2023/04/03 05:50:52;;;;;;;3.93;1.53;;;;;;;-0.06;98.03;102719.47;6072848;28;20112;-72
2023/04/03 05:53:47;;;;;;;4.60;1.13;;;;;;;-0.40;95.86;102713.13;6072200;28;20041;-73
2023/04/03 05:56:43;;;;;;;4.25;1.10;;;;;;;-0.27;96.74;102709.41;6073538;28;20039;-72
2023/04/03 05:59:38;;;;;;;9.47;0.80;;;;;;;-0.02;96.63;102709.81;6073175;28;20182;-71
2023/04/03 06:02:33;;;;;;;4.67;1.33;;;;;;;0.00;94.64;102727.16;6072036;28;20303;-72
2023/04/03 06:05:29;;;;;;;2.23;1.00;;;;;;;-0.17;95.42;102718.81;6073721;28;20045;-72
2023/04/03 06:08:24;;;;;;;4.90;1.10;;;;;;;0.10;93.87;102719.16;6073128;28;20104;-72
2023/04/03 06:11:21;;;;;;;3.15;1.13;;;;;;;-0.01;93.59;102730.66;6073200;28;20079;-72
2023/04/03 06:14:16;;;;;;;5.32;1.20;;;;;;;0.15;93.57;102722.53;6065794;28;20077;-70
2023/04/03 06:17:12;;;;;;;6.57;1.70;;;;;;;0.24;93.88;102732.78;6070532;28;20033;-71
2023/04/03 06:20:07;;;;;;;6.20;1.38;;;;;;;0.17;93.13;102733.78;6054769;28;20268;-73
2023/04/03 06:23:02;;;;;;;5.85;1.50;;;;;;;0.23;93.70;102736.28;6072381;28;20116;-69
2023/04/03 06:25:58;;;;;;;8.53;1.50;;;;;;;0.24;92.58;102731.03;6071835;28;20040;-69
2023/04/03 06:28:53;;;;;;;4.07;1.43;;;;;;;0.38;92.32;102722.94;6072656;28;20025;-70
2023/04/03 06:31:49;;;;;;;4.87;1.30;;;;;;;0.62;91.61;102745.03;6075987;28;20402;-72
2023/04/03 06:34:45;;;;;;;6.85;1.25;;;;;;;0.70;89.85;102744.00;6077193;28;20080;-70
2023/04/03 06:37:41;;;;;;;5.25;1.13;;;;;;;0.81;90.69;102746.34;6077659;28;20466;-71
2023/04/03 06:40:36;;;;;;;10.10;1.63;;;;;;;0.79;87.94;102722.88;6079747;28;20036;-70
2023/04/03 06:43:32;;;;;;;3.43;1.17;;;;;;;0.94;88.07;102735.59;6099787;28;20040;-70
2023/04/03 06:46:27;;;;;;;2.50;0.98;;;;;;;1.34;87.25;102747.72;6077711;28;20349;-69
2023/04/03 06:49:22;;;;;;;1.77;1.03;;;;;;;1.54;86.47;102755.94;6077521;28;20040;-70
2023/04/03 06:52:18;;;;;;;3.67;1.47;;;;;;;1.95;85.54;102758.34;6076921;28;20041;-71
2023/04/03 06:55:13;;;;;;;4.37;1.33;;;;;;;1.64;82.96;102767.88;6076695;28;20037;-72
2023/04/03 06:58:09;;;;;;;3.70;1.40;;;;;;;1.79;83.74;102760.47;6076932;28;20386;-69
2023/04/03 07:01:04;;;;;;;5.80;1.30;;;;;;;1.71;82.25;102769.44;6076240;28;20493;-69
2023/04/03 07:04:00;;;;;;;4.50;1.40;;;;;;;1.73;83.56;102751.97;6077780;28;20036;-68
2023/04/03 07:06:56;;;;;;;4.07;1.17;;;;;;;2.06;82.00;102761.53;6074288;28;20120;-71
2023/04/03 07:09:51;;;;;;;3.73;1.30;;;;;;;2.05;80.62;102772.03;6076293;28;20087;-70
2023/04/03 07:12:47;;;;;;;6.97;1.70;;;;;;;2.07;80.68;102765.84;6077060;28;20274;-69
2023/04/03 07:15:42;;;;;;;4.05;0.95;;;;;;;2.32;81.28;102768.66;6075300;28;20270;-70
2023/04/03 07:18:37;;;;;;;4.13;1.25;;;;;;;2.20;80.04;102782.94;6076981;28;20041;-71
2023/04/03 07:21:33;;;;;;;5.00;1.30;;;;;;;2.33;78.66;102783.47;6075546;28;20048;-71
2023/04/03 07:24:28;;;;;;;4.80;1.50;;;;;;;2.50;76.90;102790.84;6075420;28;20029;-72
2023/04/03 07:27:25;;;;;;;5.57;1.53;;;;;;;2.49;77.60;102778.66;6075734;28;20109;-70
2023/04/03 07:30:21;;;;;;;11.23;3.10;;;;;;;2.61;76.58;102788.78;6076092;28;20029;-70
2023/04/03 07:33:20;;;;;;;12.48;3.97;;;;;;;2.75;76.63;102799.69;6076259;28;20041;-69
2023/04/03 07:36:18;;;;;;;9.35;3.13;;;;;;;2.88;75.62;102807.16;6084108;28;20040;-71
2023/04/03 07:39:13;;;;;;;23.40;5.70;;;;;;;2.96;74.57;102799.09;6076506;28;20086;-70
2023/04/03 07:42:08;;;;;;;7.30;1.80;;;;;;;2.99;74.36;102785.88;6074734;28;20041;-69
2023/04/03 07:45:04;;;;;;;7.83;1.10;;;;;;;3.28;74.46;102796.34;6076121;28;20279;-69
2023/04/03 07:47:59;;;;;;;3.05;1.20;;;;;;;3.17;73.46;102793.19;6076168;28;20061;-69
2023/04/03 07:50:59;;;;;;;4.40;1.23;;;;;;;3.37;73.53;102801.25;6075999;28;20360;-69
2023/04/03 07:53:54;;;;;;;4.70;1.30;;;;;;;3.41;73.21;102797.66;6075423;28;20130;-69
2023/04/03 07:56:50;;;;;;;3.00;1.30;;;;;;;3.82;73.04;102782.31;6076006;28;20477;-69
2023/04/03 07:59:45;;;;;;;4.40;1.20;;;;;;;3.96;71.70;102791.44;6076666;28;20034;-69
2023/04/03 08:02:40;;;;;;;2.17;0.90;;;;;;;3.77;70.82;102798.22;6091218;28;20025;-69
2023/04/03 08:05:37;;;;;;;3.13;0.95;;;;;;;3.73;72.78;102777.38;6076330;28;20034;-69
2023/04/03 08:08:33;;;;;;;2.95;1.00;;;;;;;4.14;70.20;102779.44;6075862;28;20052;-69
2023/04/03 08:11:28;;;;;;;1.92;0.68;;;;;;;4.28;68.11;102777.19;6075441;28;20046;-69
2023/04/03 08:14:24;;;;;;;5.00;0.90;;;;;;;4.16;69.23;102767.09;6073751;28;20405;-70
2023/04/03 08:17:19;;;;;;;3.75;1.02;;;;;;;4.45;67.59;102774.81;6075400;28;20276;-70
2023/04/03 08:20:15;;;;;;;3.93;1.10;;;;;;;4.63;67.87;102775.88;6075170;28;20044;-70
2023/04/03 08:23:11;;;;;;;4.93;0.83;;;;;;;4.48;67.82;102790.47;6075619;28;20112;-69
2023/04/03 08:26:12;;;;;;;2.97;0.95;;;;;;;4.52;67.00;102771.03;6074422;28;20256;-70
2023/04/03 08:29:07;;;;;;;6.95;1.15;;;;;;;4.77;66.87;102786.72;6075275;28;20037;-70
2023/04/03 08:32:02;;;;;;;5.57;0.77;;;;;;;5.10;64.88;102789.84;6073162;28;20032;-70
2023/04/03 08:34:59;;;;;;;6.33;1.03;;;;;;;5.24;64.40;102792.78;6074521;28;20036;-69
2023/04/03 08:37:54;;;;;;;3.40;1.15;;;;;;;5.03;62.67;102775.22;6075275;28;20470;-70
2023/04/03 08:41:16;;;;;;;3.43;1.07;;;;;;;5.13;62.79;102787.97;6074016;28;20034;-69
2023/04/03 08:44:48;;;;;;;5.97;1.10;;;;;;;5.59;61.58;102773.81;6077756;28;20136;-70
2023/04/03 08:47:57;;;;;;;2.80;0.85;;;;;;;5.28;61.24;102768.06;6030919;28;20037;-70
2023/04/03 08:50:56;;;;;;;4.75;1.10;;;;;;;4.67;62.11;102757.31;6073757;28;20033;-69
2023/04/03 08:53:56;;;;;;;6.97;1.23;;;;;;;4.42;62.04;102764.41;6089168;28;20036;-69
2023/04/03 08:56:52;;;;;;;9.38;3.05;;;;;;;4.14;63.76;102743.53;6056194;28;20037;-70
2023/04/03 08:59:47;;;;;;;6.47;1.48;;;;;;;4.56;61.80;102767.38;6076967;28;20830;-69
2023/04/03 09:02:45;;;;;;;3.80;1.23;;;;;;;4.79;60.96;102764.72;6076416;28;20033;-69
2023/04/03 09:05:55;;;;;;;3.40;1.10;;;;;;;4.61;58.01;102769.84;6072946;28;20075;-69
2023/04/03 09:09:02;;;;;;;5.45;1.15;;;;;;;4.55;56.30;102775.31;6089949;28;20029;-69
2023/04/03 09:12:09;;;;;;;2.67;0.82;;;;;;;4.65;56.44;102781.91;6056553;28;20402;-70
2023/04/03 09:15:23;;;;;;;3.13;0.40;;;;;;;4.92;56.23;102778.25;6088672;28;20029;-70
2023/04/03 09:18:39;;;;;;;1.65;0.60;;;;;;;5.19;54.76;102776.34;6074075;28;20108;-70
2023/04/03 09:21:38;;;;;;;1.35;0.55;;;;;;;5.95;54.60;102774.06;6056710;28;20489;-70
2023/04/03 09:24:33;;;;;;;1.17;0.52;;;;;;;6.01;50.60;102750.09;6073108;28;20111;-69
2023/04/03 09:27:28;;;;;;;1.53;0.53;;;;;;;6.38;51.21;102754.59;6056428;28;20037;-70
2023/04/03 09:30:25;;;;;;;4.67;0.90;;;;;;;6.87;51.21;102763.75;6073672;28;20033;-69
2023/04/03 09:33:22;;;;;;;2.35;0.60;;;;;;;7.03;48.32;102751.53;6073703;28;20260;-70
2023/04/03 09:36:41;;;;;;;2.58;0.70;;;;;;;6.78;47.44;102757.13;6074243;28;20398;-69
2023/04/03 09:39:51;;;;;;;3.00;0.63;;;;;;;6.69;48.26;102754.91;6074212;28;20032;-70
2023/04/03 09:42:46;;;;;;;1.50;0.45;;;;;;;6.64;48.24;102751.63;6074962;28;20029;-70
2023/04/03 09:45:42;;;;;;;9.07;1.87;;;;;;;6.71;49.50;102739.88;6088121;28;20041;-70
2023/04/03 09:48:37;;;;;;;3.70;1.30;;;;;;;6.54;49.36;102750.34;6073596;28;20525;-69
2023/04/03 09:51:33;;;;;;;1.57;0.80;;;;;;;6.79;48.03;102743.03;6073462;28;20496;-69
2023/04/03 09:54:40;;;;;;;2.63;0.73;;;;;;;6.93;47.69;102729.19;6073014;28;20029;-70
2023/04/03 09:57:36;;;;;;;2.30;0.60;;;;;;;7.35;47.36;102729.72;6072944;28;20029;-69
2023/04/03 10:00:37;;;;;;;2.90;0.60;;;;;;;7.22;49.46;102725.13;6073032;28;20037;-69
2023/04/03 10:03:36;;;;;;;3.03;0.70;;;;;;;7.31;48.38;102732.59;6072718;28;20534;-69
2023/04/03 10:06:40;;;;;;;2.08;0.70;;;;;;;7.34;48.95;102735.09;6072622;28;20034;-70
2023/04/03 10:09:35;;;;;;;1.35;0.60;;;;;;;7.07;47.10;102729.34;6073429;28;20095;-71
2023/04/03 10:12:31;;;;;;;2.35;0.32;;;;;;;7.45;48.26;102727.47;6054611;28;20037;-70
2023/04/03 10:15:28;;;;;;;1.90;0.53;;;;;;;7.36;49.46;102731.44;6071983;28;20045;-70
2023/04/03 10:18:45;;;;;;;4.32;1.25;;;;;;;6.96;49.32;102711.41;6087808;28;20052;-70
2023/04/03 10:21:46;;;;;;;3.10;0.73;;;;;;;6.33;50.23;102714.44;6073135;28;20033;-69
2023/04/03 10:25:11;;;;;;;3.33;1.00;;;;;;;7.06;51.04;102717.13;6087864;28;20037;-69
2023/04/03 10:28:27;;;;;;;4.65;0.68;;;;;;;7.29;51.98;102715.97;6072956;28;20036;-70
2023/04/03 10:31:36;;;;;;;3.45;1.10;;;;;;;6.99;50.03;102713.91;6054890;28;20041;-70
2023/04/03 10:34:40;;;;;;;2.63;1.55;;;;;;;6.50;49.58;102702.19;6052053;28;20129;-70
2023/04/03 10:37:52;;;;;;;2.95;0.88;;;;;;;6.35;51.02;102718.72;6077426;28;20462;-70
2023/04/03 10:40:56;;;;;;;5.07;1.00;;;;;;;6.21;50.86;102705.31;6057215;28;20045;-69
2023/04/03 10:44:33;;;;;;;2.30;0.98;;;;;;;6.13;52.86;102712.69;6090756;28;20480;-69
2023/04/03 10:47:45;;;;;;;1.42;0.50;;;;;;;5.77;52.21;102707.22;6074490;28;20065;-69
2023/04/03 10:51:19;;;;;;;0.90;0.60;;;;;;;5.75;52.70;102716.09;6081375;28;20030;-71
2023/04/03 10:54:22;;;;;;;1.20;0.60;;;;;;;5.73;51.69;102696.91;5960312;28;20039;-70
2023/04/03 10:57:17;;;;;;;3.88;0.90;;;;;;;6.05;52.57;102708.69;6077893;28;20084;-68
2023/04/03 11:00:20;;;;;;;4.35;0.93;;;;;;;6.20;51.46;102703.56;6055213;28;20061;-68
2023/04/03 11:03:30;;;;;;;2.50;0.70;;;;;;;6.34;50.16;102697.69;6087074;28;20099;-71
2023/04/03 11:06:34;;;;;;;1.98;0.90;;;;;;;6.78;49.39;102699.13;6054177;28;20026;-69
2023/04/03 11:09:37;;;;;;;2.33;0.68;;;;;;;6.59;48.71;102690.38;6072408;28;20075;-70
2023/04/03 11:12:42;;;;;;;1.63;0.63;;;;;;;6.32;48.46;102691.63;6072207;28;20033;-69
2023/04/03 11:15:37;;;;;;;5.82;1.00;;;;;;;6.06;49.24;102697.25;6054087;28;20300;-69
2023/04/03 11:18:52;;;;;;;3.80;0.73;;;;;;;5.99;49.55;102673.81;6078561;28;20033;-69
2023/04/03 11:21:56;;;;;;;3.22;0.88;;;;;;;6.37;48.67;102673.84;6114080;28;20288;-68
2023/04/03 11:24:58;;;;;;;1.63;0.77;;;;;;;6.53;49.41;102672.19;6090729;28;20045;-69
2023/04/03 11:27:56;;;;;;;2.15;0.57;;;;;;;6.36;48.98;102677.41;6058513;28;20104;-69
2023/04/03 11:31:05;;;;;;;1.90;0.60;;;;;;;6.22;48.85;102685.09;6083685;28;20033;-69
2023/04/03 11:34:24;;;;;;;11.15;2.88;;;;;;;6.67;50.14;102672.41;6075488;28;20076;-69
2023/04/03 11:37:38;;;;;;;2.03;0.75;;;;;;;6.43;49.32;102669.16;6058403;28;20160;-69
2023/04/03 11:40:35;;;;;;;4.25;1.70;;;;;;;7.11;48.60;102662.34;6098711;28;20047;-69
2023/04/03 11:43:31;;;;;;;8.32;1.35;;;;;;;7.63;47.59;102660.56;6079454;28;20111;-69
2023/04/03 11:46:49;;;;;;;5.60;1.70;;;;;;;7.84;45.84;102670.00;6058030;28;20033;-70
2023/04/03 11:49:57;;;;;;;2.42;0.90;;;;;;;7.13;46.23;102661.34;6075707;28;20393;-69
2023/04/03 11:52:56;;;;;;;3.45;0.90;;;;;;;6.70;48.50;102653.81;6075792;28;20080;-69
2023/04/03 11:55:54;;;;;;;4.07;0.63;;;;;;;6.63;47.59;102655.03;6074258;28;20073;-69
2023/04/03 11:59:18;;;;;;;1.98;0.70;;;;;;;6.45;50.24;102640.06;6075471;28;20034;-69
2023/04/03 12:02:35;;;;;;;6.03;0.80;;;;;;;6.21;48.86;102641.22;6074767;28;20033;-69
2023/04/03 12:05:31;;;;;;;1.10;0.50;;;;;;;6.41;49.64;102643.78;6075241;28;20478;-69
2023/04/03 12:08:26;;;;;;;2.77;0.83;;;;;;;6.79;49.51;102634.06;6075679;28;20084;-69
2023/04/03 12:11:32;;;;;;;4.57;0.95;;;;;;;7.00;48.23;102654.97;6074428;28;20806;-70
2023/04/03 12:14:28;;;;;;;5.88;1.00;;;;;;;7.31;47.86;102638.44;6091548;28;20036;-70
2023/04/03 12:17:27;;;;;;;3.85;0.70;;;;;;;7.41;46.87;102638.84;6074117;28;20052;-69
2023/04/03 12:20:53;;;;;;;3.85;0.50;;;;;;;7.96;46.87;102650.88;6074408;28;20490;-69
2023/04/03 12:24:07;;;;;;;2.38;0.50;;;;;;;7.83;46.75;102641.88;6072955;28;20051;-69
2023/04/03 12:27:08;;;;;;;1.52;0.80;;;;;;;8.40;45.94;102637.09;6072921;28;20032;-70
2023/04/03 12:30:03;;;;;;;2.78;0.95;;;;;;;8.38;42.59;102634.50;6055742;28;20060;-70
2023/04/03 12:33:10;;;;;;;2.30;0.60;;;;;;;8.51;42.69;102634.66;6074960;28;20041;-70
2023/04/03 12:36:09;;;;;;;3.03;0.90;;;;;;;8.11;41.58;102620.97;6089181;28;20117;-70
2023/04/03 12:39:35;;;;;;;2.33;0.95;;;;;;;8.32;41.60;102613.69;6057344;28;20112;-69
2023/04/03 12:42:56;;;;;;;0.75;0.35;;;;;;;7.93;41.84;102616.69;6073075;28;20112;-70
2023/04/03 12:45:56;;;;;;;2.17;0.70;;;;;;;7.82;43.17;102624.34;6056169;28;20059;-71
2023/04/03 12:48:56;;;;;;;2.60;0.85;;;;;;;8.01;44.61;102617.16;6057059;28;20371;-69
2023/04/03 12:51:51;;;;;;;3.80;0.55;;;;;;;7.43;43.56;102615.84;6074506;28;20022;-69
2023/04/03 12:54:47;;;;;;;2.73;0.60;;;;;;;7.29;46.13;102613.06;6073444;28;20041;-69
2023/04/03 12:57:42;;;;;;;2.30;0.70;;;;;;;6.72;45.08;102619.44;6055439;28;20032;-70
2023/04/03 13:00:39;;;;;;;5.93;0.90;;;;;;;6.68;44.79;102610.84;6076082;28;20099;-70
2023/04/03 13:03:37;;;;;;;14.10;3.20;;;;;;;7.78;45.56;102606.94;6073446;28;20501;-70
2023/04/03 13:06:40;;;;;;;2.13;0.70;;;;;;;8.55;41.97;102588.63;6073961;28;20021;-70
2023/04/03 13:09:35;;;;;;;2.90;0.55;;;;;;;8.75;41.92;102604.22;6089240;28;20079;-70
2023/04/03 13:12:31;;;;;;;3.37;1.10;;;;;;;8.31;43.38;102602.28;6075308;28;20076;-70
2023/04/03 13:15:40;;;;;;;2.45;0.80;;;;;;;8.04;43.99;102595.84;6072174;28;20287;-70
2023/04/03 13:18:36;;;;;;;1.13;0.52;;;;;;;7.65;45.14;102590.91;6072561;28;20041;-70
2023/04/03 13:21:33;;;;;;;3.97;0.80;;;;;;;7.64;45.04;102588.31;6073657;28;20041;-71
2023/04/03 13:24:30;;;;;;;2.08;0.93;;;;;;;7.21;45.34;102589.72;6081440;28;20032;-71
2023/04/03 13:27:26;;;;;;;3.38;0.88;;;;;;;7.09;46.12;102587.72;6075792;28;20482;-71
2023/04/03 13:30:36;;;;;;;2.80;1.05;;;;;;;6.94;46.23;102591.09;6073211;28;20025;-70
2023/04/03 13:33:37;;;;;;;4.60;0.80;;;;;;;7.03;45.27;102580.97;6072256;28;20057;-71
2023/04/03 13:36:34;;;;;;;3.03;0.63;;;;;;;6.68;46.03;102592.41;6074242;28;20034;-71
2023/04/03 13:39:32;;;;;;;3.45;0.60;;;;;;;7.02;44.70;102571.34;6086612;28;20037;-69
2023/04/03 13:42:31;;;;;;;2.30;0.60;;;;;;;7.71;43.67;102558.91;6081465;28;20033;-70
2023/04/03 13:45:28;;;;;;;0.82;0.40;;;;;;;8.45;43.67;102559.22;6072506;28;20033;-70
2023/04/03 13:48:24;;;;;;;4.20;0.85;;;;;;;8.80;41.24;102550.13;6072322;28;20128;-70
2023/04/03 13:51:26;;;;;;;7.10;1.80;;;;;;;7.73;41.63;102535.03;6072195;28;20129;-70
2023/04/03 13:54:39;;;;;;;3.08;0.70;;;;;;;7.63;44.77;102549.69;6072177;28;20060;-70